createdAt,value
2022-10-05T00:00:48.011Z,9.54
2022-10-05T00:05:49.648Z,9.53
2022-10-05T00:10:51.981Z,9.46
2022-10-05T00:16:04.741Z,9.45
2022-10-05T00:21:18.404Z,9.39
2022-10-05T00:26:23.003Z,9.33
2022-10-05T00:31:29.377Z,9.32
2022-10-05T00:36:31.410Z,9.28
2022-10-05T00:41:52.161Z,9.22
2022-10-05T00:46:56.666Z,9.18
2022-10-05T00:52:20.354Z,9.15
2022-10-05T00:57:30.480Z,9.12
2022-10-05T01:03:10.754Z,9.10
2022-10-05T01:08:12.214Z,9.08
2022-10-05T01:13:41.235Z,9.02
2022-10-05T01:19:14.216Z,8.91
2022-10-05T01:24:30.888Z,8.81
2022-10-05T01:29:53.539Z,8.75
2022-10-05T01:35:18.929Z,8.72
2022-10-05T01:40:49.806Z,8.76
2022-10-05T01:46:06.845Z,8.79
2022-10-05T01:51:27.104Z,8.75
2022-10-05T01:56:42.556Z,8.71
2022-10-05T02:02:05.096Z,8.70
2022-10-05T02:07:14.599Z,8.75
2022-10-05T02:12:20.633Z,8.79
2022-10-05T02:17:36.591Z,8.81
2022-10-05T02:22:43.717Z,8.83
2022-10-05T02:28:04.253Z,8.81
2022-10-05T02:33:15.665Z,8.76
2022-10-05T02:38:44.835Z,8.67
2022-10-05T02:44:24.166Z,8.60
2022-10-05T02:49:28.513Z,8.56
2022-10-05T02:54:54.045Z,8.56
2022-10-05T03:00:04.071Z,8.58
2022-10-05T03:05:17.465Z,8.57
2022-10-05T03:10:59.624Z,8.57
2022-10-05T03:16:25.989Z,8.58
2022-10-05T03:21:48.710Z,8.50
2022-10-05T03:27:03.602Z,8.35
2022-10-05T03:32:30.000Z,8.26
2022-10-05T03:37:37.470Z,8.20
2022-10-05T03:43:16.741Z,8.15
2022-10-05T03:48:35.883Z,8.09
2022-10-05T03:53:52.723Z,8.04
2022-10-05T03:59:09.146Z,8.02
2022-10-05T04:04:19.056Z,8.06
2022-10-05T04:09:23.432Z,8.16
2022-10-05T04:14:32.345Z,8.31
2022-10-05T04:19:57.263Z,8.36
2022-10-05T04:25:06.507Z,8.33
2022-10-05T04:30:19.404Z,8.24
2022-10-05T04:35:42.553Z,8.20
2022-10-05T04:41:12.045Z,8.24
2022-10-05T04:46:36.679Z,8.28
2022-10-05T04:51:51.032Z,8.26
2022-10-05T04:56:57.629Z,8.23
2022-10-05T05:02:24.399Z,8.24
2022-10-05T05:07:49.303Z,8.21
2022-10-05T05:13:09.355Z,8.22
2022-10-05T05:18:39.348Z,8.29
2022-10-05T05:24:08.413Z,8.34
2022-10-05T05:29:30.161Z,8.38
2022-10-05T05:34:37.608Z,8.39
2022-10-05T05:40:13.993Z,8.52
2022-10-05T05:45:32.039Z,8.71
2022-10-05T05:50:48.842Z,8.78
2022-10-05T05:55:56.118Z,8.92
2022-10-05T06:01:00.933Z,9.20
2022-10-05T06:06:09.230Z,9.89
2022-10-05T06:11:26.973Z,11.25
2022-10-05T06:16:45.919Z,13.26
2022-10-05T06:21:56.385Z,14.73
2022-10-05T06:27:26.561Z,15.98
2022-10-05T06:32:31.023Z,17.26
2022-10-05T06:37:55.372Z,18.87
2022-10-05T06:43:18.359Z,20.31
2022-10-05T06:48:41.758Z,21.58
2022-10-05T06:54:10.875Z,21.74
2022-10-05T06:59:42.523Z,21.66
2022-10-05T07:05:19.025Z,22.14
2022-10-05T07:10:52.466Z,22.99
2022-10-05T07:15:59.191Z,23.27
2022-10-05T07:21:23.414Z,23.92
2022-10-05T07:26:45.807Z,24.55
2022-10-05T07:32:15.667Z,25.53
2022-10-05T07:37:50.606Z,26.57
2022-10-05T07:42:52.739Z,26.96
2022-10-05T07:48:33.205Z,26.90
2022-10-05T07:53:40.647Z,26.44
2022-10-05T07:58:51.357Z,26.25
2022-10-05T08:04:17.771Z,26.24
2022-10-05T08:09:29.443Z,25.91
2022-10-05T08:14:46.071Z,26.05
2022-10-05T08:19:56.314Z,26.87
2022-10-05T08:25:08.980Z,27.08
2022-10-05T08:30:14.039Z,26.46
2022-10-05T08:35:31.082Z,26.11
2022-10-05T08:40:53.896Z,25.63
2022-10-05T08:46:17.724Z,25.51
2022-10-05T08:51:37.333Z,25.34
2022-10-05T08:57:15.794Z,25.10
2022-10-05T09:02:28.177Z,25.79
2022-10-05T09:07:38.308Z,26.69
2022-10-05T09:12:58.566Z,27.30
2022-10-05T09:18:16.131Z,27.66
2022-10-05T09:23:36.007Z,28.41
2022-10-05T09:29:11.093Z,28.91
2022-10-05T09:34:25.174Z,28.97
2022-10-05T09:39:26.599Z,29.42
2022-10-05T09:44:51.338Z,29.77
2022-10-05T09:50:15.076Z,29.69
2022-10-05T09:55:47.588Z,30.26
2022-10-05T10:00:58.819Z,30.66
2022-10-05T10:06:36.353Z,30.88
2022-10-05T10:11:43.653Z,30.80
2022-10-05T10:17:31.580Z,29.97
2022-10-05T10:23:10.538Z,29.92
2022-10-05T10:28:53.196Z,29.55
2022-10-05T10:34:42.707Z,28.50
2022-10-05T10:40:09.492Z,27.84
2022-10-05T10:45:44.108Z,28.69
2022-10-05T10:51:01.039Z,28.90
2022-10-05T10:56:26.649Z,29.15
2022-10-05T11:01:47.667Z,29.29
2022-10-05T11:07:21.030Z,29.62
2022-10-05T11:12:45.219Z,29.45
2022-10-05T11:18:16.271Z,28.40
2022-10-05T11:23:38.593Z,27.16
2022-10-05T11:28:54.245Z,26.64
2022-10-05T11:34:17.939Z,26.53
2022-10-05T11:39:41.057Z,26.14
2022-10-05T11:45:15.776Z,25.82
2022-10-05T11:50:39.738Z,25.53
2022-10-05T11:55:57.729Z,25.49
2022-10-05T12:01:15.023Z,25.38
2022-10-05T12:06:53.186Z,25.27
2022-10-05T12:12:09.903Z,25.21
2022-10-05T12:17:18.312Z,24.97
2022-10-05T12:22:27.972Z,24.69
2022-10-05T12:27:40.818Z,24.69
2022-10-05T12:32:48.225Z,24.70
2022-10-05T12:37:58.549Z,24.69
2022-10-05T12:43:14.929Z,24.70
2022-10-05T12:48:25.292Z,24.65
2022-10-05T12:53:38.291Z,24.62
2022-10-05T12:59:04.636Z,24.58
2022-10-05T13:04:32.615Z,24.60
2022-10-05T13:09:42.227Z,24.64
2022-10-05T13:15:01.791Z,24.58
2022-10-05T13:20:24.377Z,24.59
2022-10-05T13:25:32.526Z,24.64
2022-10-05T13:30:36.267Z,24.65
2022-10-05T13:35:52.859Z,24.62
2022-10-05T13:41:40.023Z,24.57
2022-10-05T13:46:46.462Z,24.51
2022-10-05T13:52:24.932Z,24.55
2022-10-05T13:57:45.252Z,24.59
2022-10-05T14:02:53.097Z,24.59
2022-10-05T14:07:56.016Z,24.65
2022-10-05T14:13:03.354Z,24.61
2022-10-05T14:18:25.762Z,24.59
2022-10-05T14:23:27.683Z,24.54
2022-10-05T14:28:33.400Z,24.50
2022-10-05T14:33:38.743Z,24.51
2022-10-05T14:39:05.040Z,24.49
2022-10-05T14:44:09.220Z,24.47
2022-10-05T14:49:27.016Z,24.41
2022-10-05T14:54:57.097Z,24.39
2022-10-05T15:00:08.656Z,24.38
2022-10-05T15:05:15.975Z,24.34
2022-10-05T15:10:43.033Z,24.32
2022-10-05T15:15:54.587Z,24.35
2022-10-05T15:21:09.041Z,24.37
2022-10-05T15:26:39.409Z,24.40
2022-10-05T15:31:52.439Z,24.33
2022-10-05T15:37:15.054Z,24.25
2022-10-05T15:42:20.014Z,24.24
2022-10-05T15:47:53.024Z,24.15
2022-10-05T15:53:31.729Z,24.11
2022-10-05T15:58:53.192Z,23.98
2022-10-05T16:04:04.640Z,23.89
2022-10-05T16:09:25.802Z,23.81
2022-10-05T16:14:59.821Z,23.66
2022-10-05T16:20:16.478Z,23.54
2022-10-05T16:25:35.447Z,23.38
2022-10-05T16:30:58.724Z,23.17
2022-10-05T16:36:24.895Z,22.97
2022-10-05T16:41:35.003Z,22.75
2022-10-05T16:46:50.475Z,22.52
2022-10-05T16:52:15.943Z,22.30
2022-10-05T16:57:22.613Z,22.12
2022-10-05T17:02:27.215Z,21.92
2022-10-05T17:07:39.339Z,21.68
2022-10-05T17:13:25.376Z,21.44
2022-10-05T17:18:55.662Z,21.23
2022-10-05T17:24:26.356Z,21.00
2022-10-05T17:29:51.832Z,20.79
2022-10-05T17:35:00.601Z,20.61
2022-10-05T17:40:32.570Z,20.43
2022-10-05T17:45:33.914Z,20.33
2022-10-05T17:50:57.807Z,20.20
2022-10-05T17:56:05.258Z,20.09
2022-10-05T18:01:17.095Z,19.95
2022-10-05T18:06:37.589Z,19.77
2022-10-05T18:11:41.705Z,19.58
2022-10-05T18:17:10.297Z,19.37
2022-10-05T18:22:15.518Z,19.17
2022-10-05T18:27:49.415Z,18.93
2022-10-05T18:33:17.425Z,18.58
2022-10-05T18:38:52.870Z,18.22
2022-10-05T18:44:14.392Z,17.94
2022-10-05T18:49:53.658Z,17.73
2022-10-05T18:55:33.574Z,17.52
2022-10-05T19:01:03.339Z,17.38
2022-10-05T19:06:08.333Z,17.17
2022-10-05T19:11:34.342Z,16.98
2022-10-05T19:17:02.891Z,16.79
2022-10-05T19:22:22.462Z,16.76
2022-10-05T19:28:15.471Z,16.69
2022-10-05T19:33:30.444Z,16.64
2022-10-05T19:38:44.560Z,16.60
2022-10-05T19:44:13.773Z,16.55
2022-10-05T19:49:48.861Z,16.44
2022-10-05T19:55:12.499Z,16.29
2022-10-05T20:00:23.917Z,16.15
2022-10-05T20:05:25.414Z,16.01
2022-10-05T20:10:29.452Z,15.96
2022-10-05T20:15:51.911Z,15.84
2022-10-05T20:20:53.566Z,15.72
2022-10-05T20:26:13.632Z,15.61
2022-10-05T20:31:16.219Z,15.52
2022-10-05T20:36:17.716Z,15.44
2022-10-05T20:41:19.229Z,15.38
2022-10-05T20:46:20.672Z,15.36
2022-10-05T20:51:24.654Z,15.56
2022-10-05T20:56:26.927Z,15.73
2022-10-05T21:01:29.910Z,15.78
2022-10-05T21:06:31.569Z,15.86
2022-10-05T21:11:32.950Z,15.95
2022-10-05T21:16:37.737Z,16.12
2022-10-05T21:21:43.828Z,16.28
2022-10-05T21:26:45.333Z,16.40
2022-10-05T21:31:46.865Z,16.47
2022-10-05T21:36:48.392Z,16.54
2022-10-05T21:41:50.007Z,16.58
2022-10-05T21:46:52.064Z,16.55
2022-10-05T21:51:54.345Z,16.44
2022-10-05T21:56:57.429Z,16.35
2022-10-05T22:01:59.570Z,16.22
2022-10-05T22:07:01.213Z,16.07
2022-10-05T22:12:02.827Z,15.97
2022-10-05T22:17:04.607Z,15.88
2022-10-05T22:22:11.136Z,15.86
2022-10-05T22:27:13.642Z,15.75
2022-10-05T22:32:15.059Z,15.26
2022-10-05T22:37:16.809Z,14.89
2022-10-05T22:42:19.392Z,14.61
2022-10-05T22:47:20.795Z,14.41
2022-10-05T22:52:22.294Z,14.30
2022-10-05T22:57:23.919Z,14.29
2022-10-05T23:02:25.390Z,14.21
2022-10-05T23:07:26.896Z,14.12
2022-10-05T23:12:28.396Z,14.01
2022-10-05T23:17:30.893Z,14.03
2022-10-05T23:22:36.367Z,14.16
2022-10-05T23:27:39.159Z,14.26
2022-10-05T23:32:42.130Z,14.25
2022-10-05T23:37:44.902Z,14.24
2022-10-05T23:42:47.007Z,14.26
2022-10-05T23:47:48.469Z,14.37
2022-10-05T23:52:50.021Z,14.61
2022-10-05T23:57:51.448Z,14.68
